Time;durP1;ratioP1;P1;durP2;ratioP2;P2;SDS_P1;SDS_P2;PMS_P1;PMS_P2;Temp;Humidity;BMP_temperature;BMP_pressure;BME280_temperature;BME280_humidity;BME280_pressure;Samples;Min_cycle;Max_cycle;Signal;HPM_P1;HPM_P2
2021/08/05 00:00:35;;;;;;;11.45;7.45;;;;;;;28.82;53.26;99414.53;5110586;28;20167;-35
2021/08/05 00:03:01;;;;;;;16.98;7.47;;;;;;;28.95;52.74;99409.94;5110758;28;20038;-36
2021/08/05 00:05:26;;;;;;;8.95;7.03;;;;;;;28.76;53.24;99410.41;5110547;28;20028;-36
2021/08/05 00:07:52;;;;;;;12.30;7.50;;;;;;;28.67;53.53;99412.38;5110709;28;20032;-36
2021/08/05 00:10:17;;;;;;;9.23;7.25;;;;;;;28.48;54.41;99407.31;5110562;28;20035;-36
2021/08/05 00:12:43;;;;;;;9.25;7.18;;;;;;;28.58;54.03;99411.66;5110516;28;20499;-35
2021/08/05 00:15:09;;;;;;;8.93;7.15;;;;;;;28.57;53.96;99404.56;5110273;28;20472;-35
2021/08/05 00:17:34;;;;;;;11.57;7.57;;;;;;;28.50;54.16;99405.06;5110458;28;20034;-36
2021/08/05 00:20:00;;;;;;;11.85;8.05;;;;;;;28.49;54.28;99406.22;5110450;28;20371;-36
2021/08/05 00:22:25;;;;;;;10.43;8.10;;;;;;;28.49;54.22;99402.69;5110749;28;20089;-36
2021/08/05 00:24:51;;;;;;;11.10;7.80;;;;;;;28.69;53.63;99399.16;5110374;28;20471;-36
2021/08/05 00:27:16;;;;;;;9.80;7.63;;;;;;;28.38;54.53;99402.25;5110410;28;20114;-36
2021/08/05 00:29:42;;;;;;;9.23;7.88;;;;;;;28.28;54.85;99397.97;5110277;28;20027;-36
2021/08/05 00:32:07;;;;;;;9.75;7.70;;;;;;;28.42;54.41;99394.97;5110490;28;20027;-36
2021/08/05 00:34:32;;;;;;;9.27;7.90;;;;;;;28.23;55.02;99393.47;5110092;28;20084;-36
2021/08/05 00:36:58;;;;;;;12.02;7.72;;;;;;;28.24;54.90;99394.28;5110635;28;20031;-36
2021/08/05 00:39:23;;;;;;;10.82;8.13;;;;;;;28.18;55.02;99395.59;5110276;28;20111;-36
2021/08/05 00:41:49;;;;;;;12.50;8.20;;;;;;;28.29;54.80;99402.28;5110050;28;20143;-36
2021/08/05 00:44:14;;;;;;;15.00;9.10;;;;;;;28.50;54.17;99404.25;5110238;28;20050;-36
2021/08/05 00:46:40;;;;;;;12.40;8.30;;;;;;;28.59;53.97;99402.31;5110337;28;20023;-36
2021/08/05 00:49:05;;;;;;;11.48;8.68;;;;;;;28.34;54.59;99404.03;5114285;28;20054;-36
2021/08/05 00:51:31;;;;;;;10.88;8.60;;;;;;;28.11;55.54;99417.19;5114101;28;20046;-36
2021/08/05 00:53:56;;;;;;;14.38;8.90;;;;;;;28.38;54.58;99413.19;5095803;28;20027;-37
2021/08/05 00:56:22;;;;;;;9.00;8.00;;;;;;;28.49;54.30;99406.22;5113951;28;20023;-37
2021/08/05 00:58:47;;;;;;;11.75;8.40;;;;;;;28.42;54.60;99406.72;5113864;28;20026;-37
2021/08/05 01:01:15;;;;;;;11.70;8.35;;;;;;;28.45;54.29;99413.47;5114085;28;20387;-35
2021/08/05 01:03:42;;;;;;;10.25;8.27;;;;;;;28.54;54.17;99411.53;5095596;28;20116;-37
2021/08/05 01:06:26;;;;;;;13.38;8.57;;;;;;;28.31;54.82;99404.69;5113976;28;20030;-36
2021/08/05 01:09:10;;;;;;;10.57;8.30;;;;;;;28.31;54.85;99400.06;5080716;28;20031;-36
2021/08/05 01:11:40;;;;;;;11.23;8.48;;;;;;;28.31;54.85;99397.31;5095446;28;20051;-36
2021/08/05 01:14:06;;;;;;;10.10;8.00;;;;;;;27.99;55.64;99404.22;5113854;28;20063;-36
2021/08/05 01:16:33;;;;;;;9.98;8.23;;;;;;;28.23;55.06;99396.19;5078190;28;20424;-36
2021/08/05 01:19:31;;;;;;;12.18;8.73;;;;;;;28.34;54.81;99409.53;5095436;28;20096;-36
2021/08/05 01:22:00;;;;;;;10.98;8.35;;;;;;;28.21;54.96;99422.28;5095552;28;20038;-36
2021/08/05 01:24:26;;;;;;;;;;;;;;;28.16;55.27;99422.47;5078921;28;20027;-36
2021/08/05 01:26:56;;;;;;;10.48;8.05;;;;;;;28.32;54.80;99420.00;5113391;28;20010;-36
2021/08/05 01:29:22;;;;;;;11.93;8.00;;;;;;;28.04;55.39;99414.97;5078295;28;20478;-36
2021/08/05 01:31:47;;;;;;;13.30;8.10;;;;;;;27.85;55.82;99418.88;5078129;28;20027;-36
2021/08/05 01:34:14;;;;;;;14.15;8.35;;;;;;;28.21;54.85;99427.75;5078271;28;20467;-36
2021/08/05 01:36:41;;;;;;;9.88;7.95;;;;;;;28.40;54.42;99419.94;5078315;28;20019;-36
2021/08/05 01:39:06;;;;;;;9.77;7.53;;;;;;;28.40;54.45;99419.94;5078366;28;20093;-36
2021/08/05 01:41:32;;;;;;;14.93;7.80;;;;;;;28.38;54.57;99422.19;5078124;28;20023;-37
2021/08/05 01:43:57;;;;;;;13.40;8.05;;;;;;;28.63;53.85;99416.94;5078174;28;20023;-37
2021/08/05 01:46:22;;;;;;;10.35;7.85;;;;;;;28.63;54.00;99423.19;5094684;28;20493;-37
2021/08/05 01:48:49;;;;;;;13.13;8.02;;;;;;;28.59;54.13;99408.56;5094785;28;20106;-37
2021/08/05 01:51:14;;;;;;;9.43;8.13;;;;;;;28.61;54.12;99414.53;5094597;28;20032;-37
2021/08/05 01:53:40;;;;;;;11.57;8.40;;;;;;;28.60;54.15;99404.72;5112817;28;20431;-37
2021/08/05 01:56:05;;;;;;;12.25;8.07;;;;;;;28.56;54.23;99408.44;5078016;28;20399;-37
2021/08/05 01:58:31;;;;;;;10.57;8.25;;;;;;;28.41;54.49;99396.91;5112536;28;20020;-36
2021/08/05 02:00:56;;;;;;;10.80;8.05;;;;;;;28.51;54.23;99403.16;5112678;28;20088;-37
2021/08/05 02:03:22;;;;;;;12.30;8.55;;;;;;;28.58;54.19;99398.00;5112529;28;20073;-36
2021/08/05 02:06:11;;;;;;;10.45;8.40;;;;;;;28.66;53.74;99397.13;5094654;28;20471;-36
2021/08/05 02:09:04;;;;;;;10.88;8.52;;;;;;;28.92;53.42;99404.31;5084510;28;20043;-36
2021/08/05 02:11:32;;;;;;;12.52;8.70;;;;;;;28.85;53.44;99400.19;5094202;28;20016;-37
2021/08/05 02:13:58;;;;;;;9.68;8.07;;;;;;;28.88;53.35;99398.69;5112661;28;20067;-36
2021/08/05 02:16:25;;;;;;;12.07;8.60;;;;;;;28.79;53.50;99404.25;5077258;28;20400;-36
2021/08/05 02:18:51;;;;;;;12.90;8.80;;;;;;;28.63;54.04;99401.31;5094323;28;20024;-36
2021/08/05 02:21:17;;;;;;;11.52;8.65;;;;;;;28.60;54.02;99399.25;5094349;28;20070;-36
2021/08/05 02:23:42;;;;;;;11.25;8.48;;;;;;;28.62;53.92;99401.66;5094407;28;20085;-37
2021/08/05 02:26:08;;;;;;;12.27;8.90;;;;;;;28.74;53.69;99401.72;5094021;28;20467;-36
2021/08/05 02:28:33;;;;;;;17.10;8.93;;;;;;;28.73;53.79;99402.88;5112331;28;20023;-36
2021/08/05 02:30:59;;;;;;;12.75;8.50;;;;;;;28.74;53.62;99406.41;5111969;28;20052;-36
2021/08/05 02:33:26;;;;;;;11.05;8.85;;;;;;;28.65;54.09;99403.72;5093908;28;20081;-36
2021/08/05 02:35:51;;;;;;;14.27;8.68;;;;;;;28.72;53.97;99412.19;5094090;28;20032;-38
2021/08/05 02:38:17;;;;;;;11.95;8.77;;;;;;;28.65;54.16;99411.91;5093743;28;20413;-36
2021/08/05 02:40:42;;;;;;;12.65;8.57;;;;;;;28.60;54.31;99409.41;5111960;28;20035;-36
2021/08/05 02:43:09;;;;;;;12.40;8.40;;;;;;;28.46;54.75;99413.16;5076774;28;20133;-36
2021/08/05 02:45:35;;;;;;;12.57;8.52;;;;;;;28.42;54.83;99412.19;5111896;28;20122;-36
2021/08/05 02:48:01;;;;;;;11.70;8.65;;;;;;;28.34;55.23;99415.78;5077113;28;20030;-36
2021/08/05 02:50:29;;;;;;;11.60;8.50;;;;;;;28.31;55.32;99405.53;5111923;28;20405;-36
2021/08/05 02:52:55;;;;;;;11.93;8.68;;;;;;;28.33;55.35;99408.72;5093608;28;20477;-36
2021/08/05 02:55:21;;;;;;;13.50;9.20;;;;;;;28.47;55.05;99412.00;5111446;28;20522;-36
2021/08/05 02:57:46;;;;;;;13.20;9.27;;;;;;;28.53;54.70;99412.66;5111730;28;20028;-36
2021/08/05 03:00:12;;;;;;;12.30;8.70;;;;;;;28.35;55.06;99422.06;5076397;28;20088;-36
2021/08/05 03:02:38;;;;;;;11.88;8.48;;;;;;;28.19;55.86;99421.81;5111344;28;20032;-36
2021/08/05 03:05:09;;;;;;;11.90;8.82;;;;;;;28.31;55.47;99413.72;5076264;28;20135;-36
2021/08/05 03:07:35;;;;;;;11.73;9.02;;;;;;;28.31;55.69;99405.53;5093718;28;20035;-36
2021/08/05 03:10:00;;;;;;;10.93;8.43;;;;;;;28.45;55.13;99411.53;5110671;28;20454;-36
2021/08/05 03:12:26;;;;;;;16.23;11.13;;;;;;;28.57;54.90;99415.53;5111333;28;20127;-36
2021/08/05 03:14:51;;;;;;;19.38;12.10;;;;;;;28.53;54.83;99414.59;5111297;28;20082;-37
2021/08/05 03:17:17;;;;;;;24.17;17.45;;;;;;;28.52;54.91;99415.72;5111155;28;20116;-37
2021/08/05 03:19:42;;;;;;;35.58;28.20;;;;;;;28.40;55.16;99411.72;5111301;28;20104;-37
2021/08/05 03:22:08;;;;;;;149.73;102.43;;;;;;;28.54;54.74;99408.78;5111311;28;20080;-37
2021/08/05 03:24:33;;;;;;;29.55;20.02;;;;;;;28.59;54.56;99414.06;5111247;28;20031;-36
2021/08/05 03:26:59;;;;;;;13.38;10.40;;;;;;;28.47;54.92;99412.00;5110944;28;20019;-37
2021/08/05 03:29:24;;;;;;;18.23;9.50;;;;;;;28.65;54.56;99410.00;5110888;28;20028;-36
2021/08/05 03:31:49;;;;;;;12.82;9.63;;;;;;;28.74;53.95;99417.34;5111062;28;20035;-36
2021/08/05 03:34:16;;;;;;;13.57;8.80;;;;;;;28.82;53.87;99411.78;5111059;28;20027;-37
2021/08/05 03:36:41;;;;;;;16.90;9.43;;;;;;;28.79;53.88;99414.41;5092475;28;20380;-36
2021/08/05 03:39:06;;;;;;;15.15;9.40;;;;;;;28.83;54.18;99415.34;5110868;28;20024;-36
2021/08/05 03:41:32;;;;;;;13.23;9.38;;;;;;;28.82;54.15;99420.00;5092375;28;20379;-36
2021/08/05 03:43:57;;;;;;;13.95;10.60;;;;;;;28.76;54.03;99413.13;5110791;28;20015;-36
2021/08/05 03:46:23;;;;;;;13.77;10.02;;;;;;;28.84;53.84;99420.50;5111024;28;20148;-36
2021/08/05 03:48:48;;;;;;;17.75;10.15;;;;;;;28.82;53.57;99430.16;5110982;28;20088;-36
2021/08/05 03:51:14;;;;;;;13.73;9.85;;;;;;;28.83;53.46;99418.88;5110938;28;20028;-38
2021/08/05 03:53:39;;;;;;;15.60;11.82;;;;;;;28.89;53.61;99426.91;5110604;28;20379;-36
2021/08/05 03:56:05;;;;;;;37.35;28.90;;;;;;;28.98;53.35;99416.69;5110323;28;20123;-37
2021/08/05 03:58:30;;;;;;;14.93;11.23;;;;;;;29.05;53.33;99415.03;5110680;28;20040;-37
2021/08/05 04:00:56;;;;;;;15.82;9.82;;;;;;;29.08;52.85;99418.22;5110421;28;20027;-36
2021/08/05 04:03:21;;;;;;;25.10;18.83;;;;;;;29.11;53.06;99421.09;5110749;28;20028;-36
2021/08/05 04:05:46;;;;;;;13.93;12.02;;;;;;;29.04;53.06;99424.34;5110723;28;20076;-37
2021/08/05 04:08:12;;;;;;;17.38;12.30;;;;;;;29.17;52.87;99427.19;5110550;28;20024;-36
2021/08/05 04:10:37;;;;;;;11.50;9.30;;;;;;;29.07;52.90;99422.88;5110706;28;20015;-36
2021/08/05 04:13:03;;;;;;;10.48;8.90;;;;;;;29.14;52.85;99428.66;5110545;28;20147;-37
2021/08/05 04:15:28;;;;;;;23.90;10.73;;;;;;;29.41;52.22;99424.53;5110531;28;20043;-37
2021/08/05 04:17:54;;;;;;;15.82;10.43;;;;;;;29.69;51.73;99423.94;5110296;28;20159;-37
2021/08/05 04:20:21;;;;;;;15.18;10.00;;;;;;;29.48;52.25;99421.25;5110464;28;20023;-37
2021/08/05 04:22:47;;;;;;;13.15;10.30;;;;;;;29.53;51.72;99422.97;5114127;28;20030;-37
2021/08/05 04:25:12;;;;;;;16.02;9.45;;;;;;;29.62;51.41;99423.69;5114605;28;20016;-37
2021/08/05 04:27:38;;;;;;;14.35;10.93;;;;;;;29.86;51.27;99413.97;5114620;28;20271;-37
2021/08/05 04:30:08;;;;;;;16.02;9.85;;;;;;;29.76;51.13;99410.50;5114491;28;20386;-37
2021/08/05 04:32:34;;;;;;;13.35;10.10;;;;;;;29.98;50.93;99413.97;5114275;28;20023;-37
2021/08/05 04:34:59;;;;;;;16.70;11.05;;;;;;;29.88;51.00;99409.72;5114461;28;20023;-36
2021/08/05 04:37:25;;;;;;;13.93;10.65;;;;;;;30.01;51.39;99413.28;5114483;28;20030;-37
2021/08/05 04:39:50;;;;;;;13.18;10.10;;;;;;;29.84;52.05;99402.53;5114502;28;20030;-36
2021/08/05 04:42:16;;;;;;;12.50;9.40;;;;;;;29.86;52.03;99402.97;5113960;28;20092;-36
2021/08/05 04:44:41;;;;;;;12.35;9.05;;;;;;;29.59;52.49;99395.03;5114146;28;20031;-36
2021/08/05 04:47:07;;;;;;;22.00;19.67;;;;;;;29.60;52.71;99407.56;5114052;28;20102;-36
2021/08/05 04:49:32;;;;;;;13.98;9.15;;;;;;;29.59;53.29;99405.97;5114595;28;20023;-36
2021/08/05 04:51:58;;;;;;;12.88;8.82;;;;;;;29.77;52.57;99398.38;5114481;28;20054;-36
2021/08/05 04:54:23;;;;;;;12.15;8.55;;;;;;;29.71;53.00;99394.25;5114096;28;20035;-36
2021/08/05 04:56:49;;;;;;;13.23;8.85;;;;;;;29.55;53.74;99396.03;5113963;28;20028;-36
2021/08/05 04:59:14;;;;;;;11.30;8.90;;;;;;;30.00;52.52;99396.00;5114167;28;20034;-37
2021/08/05 05:01:40;;;;;;;11.35;9.00;;;;;;;29.60;53.69;99388.38;5113858;28;20019;-37
2021/08/05 05:04:05;;;;;;;11.05;8.10;;;;;;;30.24;51.83;99397.16;5113527;28;20443;-37
2021/08/05 05:06:31;;;;;;;15.88;8.80;;;;;;;30.24;51.39;99394.41;5114045;28;20019;-37
2021/08/05 05:08:56;;;;;;;14.50;8.40;;;;;;;30.51;51.18;99387.44;5113949;28;20486;-36
2021/08/05 05:11:22;;;;;;;15.82;9.13;;;;;;;30.09;51.89;99403.34;5113913;28;20050;-36
2021/08/05 05:13:48;;;;;;;14.10;9.27;;;;;;;30.14;51.78;99390.19;5113653;28;20023;-36
2021/08/05 05:16:14;;;;;;;14.80;9.07;;;;;;;30.55;50.80;99382.06;5113390;28;20047;-37
2021/08/05 05:18:39;;;;;;;14.38;8.93;;;;;;;30.94;49.87;99388.75;5113482;28;20093;-37
2021/08/05 05:21:04;;;;;;;12.55;9.40;;;;;;;31.01;49.30;99390.88;5113652;28;20525;-37
2021/08/05 05:23:31;;;;;;;14.45;9.48;;;;;;;31.47;47.83;99387.84;5113001;28;20032;-36
2021/08/05 05:25:57;;;;;;;14.25;9.07;;;;;;;31.86;47.11;99390.81;5113508;28;20019;-36
2021/08/05 05:28:22;;;;;;;16.63;9.52;;;;;;;32.38;45.65;99395.19;5113414;28;20477;-37
2021/08/05 05:30:48;;;;;;;15.27;9.23;;;;;;;32.00;46.30;99382.88;5113286;28;20034;-37
2021/08/05 05:33:13;;;;;;;14.77;9.30;;;;;;;32.34;45.87;99384.09;5112679;28;20085;-37
2021/08/05 05:35:39;;;;;;;14.60;9.05;;;;;;;32.43;45.46;99388.63;5113324;28;20111;-37
2021/08/05 05:38:04;;;;;;;12.73;8.95;;;;;;;32.64;45.26;99380.84;5113045;28;20089;-37
2021/08/05 05:40:30;;;;;;;13.40;10.00;;;;;;;32.27;45.52;99380.38;5113204;28;20020;-37
2021/08/05 05:42:55;;;;;;;13.45;9.30;;;;;;;31.29;48.06;99393.63;5113115;28;20117;-37
2021/08/05 05:45:21;;;;;;;19.67;9.95;;;;;;;31.14;48.64;99389.69;5113000;28;20020;-37
2021/08/05 05:47:47;;;;;;;15.15;9.40;;;;;;;31.63;47.84;99382.38;5112759;28;20468;-37
2021/08/05 05:50:13;;;;;;;13.95;9.38;;;;;;;32.02;46.72;99374.31;5113079;28;20015;-37
2021/08/05 05:52:38;;;;;;;10.50;9.30;;;;;;;32.68;45.34;99372.69;5112799;28;20038;-37
2021/08/05 05:55:04;;;;;;;16.73;9.60;;;;;;;32.90;44.73;99385.75;5112931;28;20031;-37
2021/08/05 05:57:30;;;;;;;12.50;9.68;;;;;;;32.32;46.03;99388.38;5112965;28;20084;-38
2021/08/05 05:59:55;;;;;;;11.38;8.63;;;;;;;32.09;46.87;99379.97;5113149;28;20035;-38
2021/08/05 06:02:21;;;;;;;13.73;10.10;;;;;;;31.95;47.03;99385.94;5112627;28;20475;-38
2021/08/05 06:04:46;;;;;;;12.82;9.98;;;;;;;31.87;47.14;99379.44;5112737;28;20024;-38
2021/08/05 06:07:12;;;;;;;13.25;9.38;;;;;;;32.16;46.85;99371.91;5112309;28;20043;-37
2021/08/05 06:09:37;;;;;;;18.88;10.27;;;;;;;32.12;46.33;99374.56;5112544;28;20028;-37
2021/08/05 06:12:03;;;;;;;16.58;10.38;;;;;;;31.99;47.02;99367.53;5112580;28;20451;-38
2021/08/05 06:14:28;;;;;;;12.02;9.73;;;;;;;32.36;46.08;99367.22;5112985;28;20031;-38
2021/08/05 06:16:54;;;;;;;15.15;10.48;;;;;;;31.94;47.27;99363.09;5112030;28;20430;-38
2021/08/05 06:19:19;;;;;;;15.13;9.75;;;;;;;32.25;46.64;99367.00;5112471;28;20051;-38
2021/08/05 06:21:45;;;;;;;14.52;10.27;;;;;;;32.47;45.78;99365.50;5112488;28;20070;-38
2021/08/05 06:24:12;;;;;;;12.18;10.27;;;;;;;33.07;44.37;99365.22;5112472;28;20544;-38
2021/08/05 06:26:38;;;;;;;13.70;10.10;;;;;;;32.99;44.70;99376.44;5112237;28;20096;-37
2021/08/05 06:29:04;;;;;;;14.68;10.23;;;;;;;33.46;43.43;99359.66;5112421;28;20112;-37
2021/08/05 06:31:30;;;;;;;13.05;10.30;;;;;;;34.03;42.50;99361.78;5112073;28;20470;-37
2021/08/05 06:33:55;;;;;;;17.13;10.05;;;;;;;34.35;41.79;99362.31;5112316;28;20052;-37
2021/08/05 06:36:21;;;;;;;12.90;9.75;;;;;;;34.70;41.34;99352.13;5112047;28;20023;-37
2021/08/05 06:38:47;;;;;;;11.63;9.88;;;;;;;35.15;40.19;99353.03;5111881;28;20043;-36
2021/08/05 06:41:13;;;;;;;12.40;9.38;;;;;;;35.28;39.95;99348.88;5111842;28;20383;-37
2021/08/05 06:43:38;;;;;;;16.98;10.27;;;;;;;35.24;40.51;99348.00;5111759;28;20038;-36
2021/08/05 06:46:03;;;;;;;13.60;9.98;;;;;;;35.53;39.29;99343.56;5110977;28;20088;-37
2021/08/05 06:48:29;;;;;;;11.43;9.98;;;;;;;35.98;38.28;99344.31;5111573;28;20028;-37
2021/08/05 06:50:54;;;;;;;16.73;10.48;;;;;;;35.67;39.07;99336.56;5111625;28;20423;-38
2021/08/05 06:53:20;;;;;;;21.27;13.05;;;;;;;35.20;39.51;99336.91;5111718;28;20039;-37
2021/08/05 06:55:46;;;;;;;12.73;10.40;;;;;;;35.64;38.41;99340.88;5111586;28;20024;-38
2021/08/05 06:58:12;;;;;;;11.98;9.82;;;;;;;36.04;37.84;99339.22;5093165;28;20032;-38
2021/08/05 07:00:37;;;;;;;13.07;10.23;;;;;;;35.97;37.40;99336.41;5111502;28;20034;-38
2021/08/05 07:03:03;;;;;;;13.57;9.80;;;;;;;35.24;38.98;99334.19;5111344;28;20389;-38
2021/08/05 07:05:28;;;;;;;14.60;9.85;;;;;;;35.84;37.80;99329.59;5111100;28;20023;-38
2021/08/05 07:07:55;;;;;;;14.50;10.60;;;;;;;35.89;37.51;99320.91;5111525;28;20043;-38
2021/08/05 07:10:24;;;;;;;23.17;9.75;;;;;;;35.27;38.74;99329.88;5111482;28;20034;-37
2021/08/05 07:12:50;;;;;;;12.85;9.82;;;;;;;35.99;37.60;99322.97;5111344;28;20563;-38
2021/08/05 07:15:15;;;;;;;12.48;9.50;;;;;;;36.76;36.27;99323.00;5111368;28;20151;-38
2021/08/05 07:17:44;;;;;;;12.40;9.88;;;;;;;37.11;35.55;99313.19;5111434;28;20065;-38
2021/08/05 07:20:13;;;;;;;12.40;9.40;;;;;;;37.51;34.72;99311.31;5111144;28;20039;-38
2021/08/05 07:22:40;;;;;;;14.32;9.15;;;;;;;37.59;34.63;99307.31;5111383;28;20379;-38
2021/08/05 07:25:10;;;;;;;11.27;9.27;;;;;;;36.52;36.92;99302.31;5111069;28;20111;-37
2021/08/05 07:27:39;;;;;;;14.35;9.88;;;;;;;36.57;35.85;99301.94;5110877;28;20028;-38
2021/08/05 07:30:06;;;;;;;15.13;9.07;;;;;;;37.43;34.67;99293.84;5110572;28;20023;-37
2021/08/05 07:32:31;;;;;;;12.85;9.23;;;;;;;37.67;34.34;99291.50;5110989;28;20028;-37
2021/08/05 07:34:57;;;;;;;12.48;9.48;;;;;;;37.93;33.36;99284.72;5110914;28;20027;-38
2021/08/05 07:37:22;;;;;;;11.95;9.18;;;;;;;37.80;33.84;99283.56;5111250;28;20048;-38
2021/08/05 07:39:48;;;;;;;12.75;9.48;;;;;;;37.16;34.71;99283.13;5110896;28;20032;-37
2021/08/05 07:42:15;;;;;;;13.43;10.00;;;;;;;37.13;34.66;99283.13;5110509;28;20023;-38
2021/08/05 07:44:41;;;;;;;11.38;9.40;;;;;;;37.77;33.54;99282.34;5110754;28;20024;-38
2021/08/05 07:47:07;;;;;;;13.45;9.55;;;;;;;38.14;33.06;99281.13;5092074;28;20020;-38
2021/08/05 07:49:32;;;;;;;15.25;9.75;;;;;;;37.91;32.96;99287.09;5092270;28;20126;-38
2021/08/05 07:51:58;;;;;;;13.50;9.48;;;;;;;37.51;33.92;99286.31;5110565;28;20027;-38
2021/08/05 07:54:23;;;;;;;12.48;9.25;;;;;;;37.81;33.30;99285.13;5110367;28;20336;-38
2021/08/05 07:56:48;;;;;;;12.55;9.50;;;;;;;38.12;32.69;99272.41;5109825;28;20038;-38
2021/08/05 07:59:14;;;;;;;12.93;9.50;;;;;;;37.92;33.29;99275.56;5110573;28;20088;-38
2021/08/05 08:01:39;;;;;;;14.65;8.93;;;;;;;38.54;32.05;99265.09;5110029;28;20027;-38
2021/08/05 08:04:05;;;;;;;10.75;9.13;;;;;;;39.10;30.96;99260.41;5110504;28;20368;-38
2021/08/05 08:06:30;;;;;;;15.32;9.30;;;;;;;38.47;31.89;99265.09;5110036;28;20024;-38
2021/08/05 08:08:56;;;;;;;14.50;9.13;;;;;;;38.75;31.10;99255.84;5110558;28;20031;-38
2021/08/05 08:11:24;;;;;;;15.35;9.25;;;;;;;38.92;31.33;99252.16;5110675;28;20486;-38
2021/08/05 08:13:50;;;;;;;16.83;9.20;;;;;;;38.88;31.04;99248.63;5110396;28;20031;-38
2021/08/05 08:16:18;;;;;;;13.82;9.52;;;;;;;38.78;31.10;99243.13;5110018;28;20480;-38
2021/08/05 08:18:45;;;;;;;13.98;8.95;;;;;;;38.25;31.34;99233.84;5110317;28;20414;-38
2021/08/05 08:21:10;;;;;;;11.10;8.90;;;;;;;38.42;30.90;99235.75;5110667;28;20031;-38
2021/08/05 08:23:35;;;;;;;13.48;8.60;;;;;;;38.43;29.99;99234.56;5092029;28;20042;-38
2021/08/05 08:26:02;;;;;;;12.68;8.75;;;;;;;38.91;30.33;99228.31;5110153;28;20016;-38
2021/08/05 08:28:28;;;;;;;13.38;9.65;;;;;;;38.74;30.84;99226.47;5110225;28;20073;-39
2021/08/05 08:30:53;;;;;;;14.82;8.68;;;;;;;38.27;31.22;99225.88;5092001;28;20402;-39
2021/08/05 08:33:19;;;;;;;17.10;9.80;;;;;;;38.58;30.74;99215.84;5110574;28;20030;-38
2021/08/05 08:35:44;;;;;;;15.45;9.38;;;;;;;37.51;32.67;99226.06;5091936;28;20439;-38
2021/08/05 08:38:10;;;;;;;10.77;8.90;;;;;;;38.09;32.21;99204.53;5110308;28;20012;-39
2021/08/05 08:40:35;;;;;;;15.52;9.20;;;;;;;39.18;30.41;99213.06;5110096;28;20032;-42
2021/08/05 08:43:01;;;;;;;14.40;9.43;;;;;;;38.71;31.12;99214.19;5110088;28;20032;-38
2021/08/05 08:45:26;;;;;;;18.27;8.75;;;;;;;38.77;30.02;99205.41;5110174;28;20454;-38
2021/08/05 08:47:52;;;;;;;13.50;8.82;;;;;;;37.61;31.63;99201.50;5110759;28;20152;-38
2021/08/05 08:50:18;;;;;;;12.85;8.90;;;;;;;36.89;32.75;99212.56;5109864;28;20049;-38
2021/08/05 08:52:44;;;;;;;12.68;8.38;;;;;;;36.66;32.79;99201.84;5109821;28;20046;-38
2021/08/05 08:55:10;;;;;;;14.23;8.52;;;;;;;37.24;32.00;99200.72;5109968;28;20141;-38
2021/08/05 08:57:36;;;;;;;15.52;8.48;;;;;;;38.06;31.34;99199.78;5091612;28;20371;-39
2021/08/05 09:00:03;;;;;;;14.00;8.45;;;;;;;37.64;31.96;99200.69;5091345;28;20069;-38
2021/08/05 09:02:29;;;;;;;10.53;8.33;;;;;;;37.04;32.96;99197.53;5109980;28;20027;-38
2021/08/05 09:04:55;;;;;;;10.35;8.00;;;;;;;37.99;31.64;99199.03;5074401;28;20106;-39
2021/08/05 09:07:23;;;;;;;11.43;7.85;;;;;;;38.83;30.69;99198.22;5073322;28;20031;-38
2021/08/05 09:09:50;;;;;;;16.88;8.50;;;;;;;39.40;29.00;99210.88;5112700;28;20099;-38
2021/08/05 09:12:15;;;;;;;13.32;9.05;;;;;;;37.97;31.51;99191.09;5111363;28;20050;-38
2021/08/05 09:14:51;;;;;;;17.98;8.80;;;;;;;38.23;31.17;99180.69;5093151;28;20399;-38
2021/08/05 09:17:27;;;;;;;18.10;8.98;;;;;;;39.03;29.99;99182.59;5111946;28;20359;-38
2021/08/05 09:19:54;;;;;;;11.93;8.35;;;;;;;40.21;28.08;99185.34;5112243;28;20054;-38
2021/08/05 09:22:36;;;;;;;14.00;8.10;;;;;;;41.28;26.90;99171.81;5111875;28;20300;-38
2021/08/05 09:25:34;;;;;;;12.32;7.97;;;;;;;41.61;26.55;99158.81;5093594;28;20076;-38
2021/08/05 09:28:14;;;;;;;13.10;7.90;;;;;;;41.29;25.58;99161.44;5057058;28;20036;-38
2021/08/05 09:30:40;;;;;;;12.35;7.78;;;;;;;40.71;25.97;99161.56;5113220;28;20038;-38
2021/08/05 09:33:10;;;;;;;11.75;7.78;;;;;;;40.19;26.69;99157.13;5113050;28;20065;-38
2021/08/05 09:35:39;;;;;;;13.63;8.02;;;;;;;39.46;27.46;99142.47;5112897;28;20584;-38
2021/08/05 09:38:20;;;;;;;12.90;8.07;;;;;;;38.49;30.22;99143.22;5113396;28;20046;-38
2021/08/05 09:40:47;;;;;;;12.07;8.23;;;;;;;38.96;29.95;99149.25;5112813;28;20030;-38
2021/08/05 09:43:13;;;;;;;10.75;8.18;;;;;;;39.24;29.37;99134.31;5112917;28;20043;-38
2021/08/05 09:45:39;;;;;;;14.70;8.60;;;;;;;39.78;28.83;99130.97;5077718;28;20107;-38
2021/08/05 09:48:05;;;;;;;13.18;8.32;;;;;;;40.05;27.75;99135.81;5112933;28;20475;-38
2021/08/05 09:50:31;;;;;;;15.80;9.10;;;;;;;39.37;28.71;99122.66;5112921;28;20023;-38
2021/08/05 09:53:10;;;;;;;16.25;9.15;;;;;;;39.51;28.75;99113.38;5113025;28;20340;-38
2021/08/05 09:55:36;;;;;;;12.93;9.10;;;;;;;39.07;29.67;99119.38;5112740;28;20024;-38
2021/08/05 09:58:01;;;;;;;14.50;8.80;;;;;;;38.62;29.98;99116.56;5112455;28;20564;-38
2021/08/05 10:00:27;;;;;;;11.57;8.77;;;;;;;39.13;29.35;99107.78;5112743;28;20379;-38
2021/08/05 10:02:52;;;;;;;14.73;9.40;;;;;;;38.66;30.10;99094.31;5077367;28;20027;-38
2021/08/05 10:05:20;;;;;;;10.05;8.60;;;;;;;39.48;29.33;99092.75;5112898;28;20094;-38
2021/08/05 10:07:59;;;;;;;12.07;8.40;;;;;;;40.10;28.13;99076.88;5113076;28;20047;-38
2021/08/05 10:10:26;;;;;;;15.60;9.07;;;;;;;39.80;28.38;99072.09;5112904;28;20020;-38
2021/08/05 10:12:56;;;;;;;14.93;9.02;;;;;;;38.67;30.20;99082.78;5112493;28;20027;-38
2021/08/05 10:15:22;;;;;;;16.55;9.40;;;;;;;38.76;30.16;99075.94;5112627;28;20044;-37
2021/08/05 10:17:52;;;;;;;11.38;8.70;;;;;;;38.46;30.89;99069.81;5112445;28;20387;-38
2021/08/05 10:20:18;;;;;;;13.60;8.90;;;;;;;38.55;30.59;99060.25;5112381;28;20016;-38
2021/08/05 10:22:43;;;;;;;10.23;8.38;;;;;;;38.38;30.57;99059.16;5077405;28;20045;-38
2021/08/05 10:25:11;;;;;;;20.58;9.13;;;;;;;38.59;30.50;99058.22;5094367;28;20133;-38
2021/08/05 10:27:37;;;;;;;;;;;;;;;39.09;30.04;99046.69;5112625;28;20024;-38
2021/08/05 10:30:04;;;;;;;12.55;8.82;;;;;;;39.64;28.75;99040.06;5112214;28;20298;-38
2021/08/05 10:32:30;;;;;;;11.32;9.10;;;;;;;39.56;29.50;99030.22;5112160;28;20016;-39
2021/08/05 10:34:55;;;;;;;10.30;8.68;;;;;;;39.39;29.00;99034.78;5093717;28;20096;-38
2021/08/05 10:37:21;;;;;;;13.35;9.05;;;;;;;39.12;29.71;99031.13;5093824;28;20019;-38
2021/08/05 10:39:47;;;;;;;13.88;8.73;;;;;;;39.43;29.55;99024.41;5112049;28;20019;-38
2021/08/05 10:42:16;;;;;;;15.45;9.70;;;;;;;37.98;31.74;99028.06;5111883;28;20019;-38
2021/08/05 10:44:42;;;;;;;13.65;9.02;;;;;;;37.99;31.88;99013.00;5111913;28;20102;-38
2021/08/05 10:47:11;;;;;;;11.35;8.90;;;;;;;38.61;30.24;99003.03;5112058;28;20015;-38
2021/08/05 10:49:36;;;;;;;13.60;8.98;;;;;;;39.01;30.37;99007.00;5094246;28;20049;-38
2021/08/05 10:52:02;;;;;;;12.07;9.18;;;;;;;39.35;29.87;98997.88;5111894;28;20588;-38
2021/08/05 10:54:46;;;;;;;11.60;8.57;;;;;;;39.46;29.46;98997.78;5093620;28;20031;-38
2021/08/05 10:57:19;;;;;;;14.02;8.82;;;;;;;39.08;30.19;98992.25;5111783;28;20028;-38
2021/08/05 11:00:03;;;;;;;12.95;8.88;;;;;;;39.27;29.96;99005.50;5111779;28;20134;-38
2021/08/05 11:02:53;;;;;;;11.43;8.50;;;;;;;38.57;30.44;98996.72;5111774;28;20070;-38
2021/08/05 11:05:22;;;;;;;13.77;9.23;;;;;;;38.78;30.52;98985.38;5111300;28;20053;-38
2021/08/05 11:07:48;;;;;;;14.85;8.75;;;;;;;39.45;29.49;98979.47;5111467;28;20111;-38
2021/08/05 11:10:17;;;;;;;10.32;8.65;;;;;;;40.19;28.77;98982.38;5111490;28;20027;-39
2021/08/05 11:12:44;;;;;;;15.20;9.07;;;;;;;40.94;27.50;98974.75;5111227;28;20202;-39
2021/08/05 11:15:25;;;;;;;16.07;9.23;;;;;;;41.26;26.74;98978.13;5111184;28;20051;-39
2021/08/05 11:18:09;;;;;;;13.43;8.88;;;;;;;40.06;27.70;98964.69;5111242;28;20039;-38
2021/08/05 11:20:36;;;;;;;17.27;9.05;;;;;;;40.19;28.26;98948.97;5111357;28;20032;-38
2021/08/05 11:23:01;;;;;;;15.65;8.82;;;;;;;40.39;28.28;98946.28;5110905;28;20023;-38